Time;durP1;ratioP1;P1;durP2;ratioP2;P2;SDS_P1;SDS_P2;PMS_P1;PMS_P2;Temp;Humidity;BMP_temperature;BMP_pressure;BME280_temperature;BME280_humidity;BME280_pressure;Samples;Min_cycle;Max_cycle;Signal;HPM_P1;HPM_P2
2022/05/26 00:01:23;;;;;;;3.97;3.60;;;13.50;99.90;;;;;;5059324;28;20206;-47
2022/05/26 00:03:51;;;;;;;6.50;3.70;;;13.50;99.90;;;;;;5048675;28;20203;-43
2022/05/26 00:06:19;;;;;;;4.60;3.90;;;13.50;99.90;;;;;;5050681;28;20571;-46
2022/05/26 00:08:47;;;;;;;4.47;3.47;;;13.50;99.90;;;;;;5053789;28;20215;-46
2022/05/26 00:11:17;;;;;;;3.30;3.07;;;13.60;99.90;;;;;;5043036;28;20234;-47
2022/05/26 00:13:44;;;;;;;4.10;3.80;;;13.60;99.90;;;;;;5043061;28;20246;-47
2022/05/26 00:16:11;;;;;;;3.87;3.40;;;13.60;99.90;;;;;;5046954;28;20197;-47
2022/05/26 00:18:38;;;;;;;5.90;3.90;;;13.60;99.90;;;;;;5040015;28;21856;-47
2022/05/26 00:21:06;;;;;;;5.47;3.90;;;13.60;99.90;;;;;;5057072;28;20644;-46
2022/05/26 00:23:33;;;;;;;4.23;3.67;;;13.70;99.90;;;;;;5047099;28;20199;-43
2022/05/26 00:26:01;;;;;;;4.27;3.97;;;13.70;99.90;;;;;;5056922;28;20660;-44
2022/05/26 00:28:31;;;;;;;6.13;3.47;;;13.70;99.90;;;;;;5040883;28;20219;-43
2022/05/26 00:30:58;;;;;;;6.10;4.07;;;13.70;99.90;;;;;;5054574;28;20214;-45
2022/05/26 00:33:26;;;;;;;4.50;3.10;;;13.80;99.90;;;;;;5060290;28;20965;-43
2022/05/26 00:35:53;;;;;;;6.30;4.03;;;13.70;99.90;;;;;;5043911;28;20216;-43
2022/05/26 00:38:20;;;;;;;4.90;3.40;;;13.80;99.90;;;;;;5051374;28;20219;-44
2022/05/26 00:40:48;;;;;;;4.50;3.50;;;13.80;99.90;;;;;;5054854;28;20222;-43
2022/05/26 00:43:15;;;;;;;3.93;3.57;;;13.80;99.90;;;;;;5051771;28;20203;-44
2022/05/26 00:45:52;;;;;;;4.40;3.80;;;13.80;99.90;;;;;;5040847;28;20227;-44
2022/05/26 00:48:23;;;;;;;12.10;5.33;;;13.80;99.90;;;;;;5048378;28;20563;-44
2022/05/26 00:50:54;;;;;;;6.47;3.97;;;13.80;99.90;;;;;;5057395;28;20222;-43
2022/05/26 00:53:25;;;;;;;5.07;3.80;;;13.80;99.90;;;;;;5050891;28;20206;-49
2022/05/26 00:55:57;;;;;;;5.07;4.17;;;13.80;99.90;;;;;;5050896;28;20211;-44
2022/05/26 00:58:28;;;;;;;4.87;4.10;;;13.80;99.90;;;;;;5054369;28;20254;-47
2022/05/26 01:00:57;;;;;;;6.00;4.23;;;13.80;99.90;;;;;;5044425;28;20285;-43
2022/05/26 01:03:30;;;;;;;6.07;3.57;;;13.80;99.90;;;;;;5046523;28;20204;-44
2022/05/26 01:06:01;;;;;;;5.10;4.03;;;13.80;99.90;;;;;;5048733;28;20260;-46
2022/05/26 01:08:34;;;;;;;3.43;3.13;;;13.80;99.90;;;;;;5042006;28;20238;-48
2022/05/26 01:11:01;;;;;;;5.23;3.80;;;13.80;99.90;;;;;;5050010;28;20218;-44
2022/05/26 01:13:31;;;;;;;4.10;3.77;;;13.80;99.90;;;;;;5050775;28;20822;-44
2022/05/26 01:16:05;;;;;;;5.47;4.20;;;13.80;99.90;;;;;;5044431;28;20226;-44
2022/05/26 01:18:42;;;;;;;4.97;3.60;;;13.80;99.90;;;;;;5043667;28;20222;-46
2022/05/26 01:21:17;;;;;;;5.50;3.97;;;13.80;99.90;;;;;;5038895;28;20285;-46
2022/05/26 01:24:15;;;;;;;4.23;3.93;;;13.80;99.90;;;;;;5047736;28;20210;-46
2022/05/26 01:27:11;;;;;;;7.20;4.40;;;13.80;99.90;;;;;;5049959;28;20309;-44
2022/05/26 01:30:09;;;;;;;4.40;4.00;;;13.90;99.90;;;;;;5042109;28;20284;-45
2022/05/26 01:32:50;;;;;;;6.20;4.60;;;13.90;99.90;;;;;;5053786;28;20223;-48
2022/05/26 01:35:24;;;;;;;4.30;3.80;;;13.90;99.90;;;;;;5044996;28;20198;-45
2022/05/26 01:38:03;;;;;;;6.97;4.33;;;13.90;99.90;;;;;;5054875;28;20214;-43
2022/05/26 01:40:37;;;;;;;4.50;4.10;;;13.90;99.90;;;;;;5046851;28;20928;-46
2022/05/26 01:43:14;;;;;;;4.43;4.03;;;13.90;99.90;;;;;;5047900;28;20587;-46
2022/05/26 01:45:51;;;;;;;5.53;4.27;;;13.90;99.90;;;;;;5044691;28;20535;-43
2022/05/26 01:48:26;;;;;;;5.07;4.27;;;14.00;99.90;;;;;;5042319;28;20231;-44
2022/05/26 01:50:57;;;;;;;5.27;4.40;;;14.00;99.90;;;;;;5044969;28;20207;-44
2022/05/26 01:53:32;;;;;;;9.00;4.73;;;14.00;99.90;;;;;;5032820;28;20893;-45
2022/05/26 01:56:06;;;;;;;6.47;5.13;;;14.00;99.90;;;;;;5046642;28;20217;-44
2022/05/26 01:58:36;;;;;;;4.70;4.37;;;14.00;99.90;;;;;;5053539;28;20917;-45
2022/05/26 02:01:11;;;;;;;7.70;4.70;;;14.00;99.90;;;;;;5042260;28;20282;-47
2022/05/26 02:03:42;;;;;;;6.07;4.77;;;14.00;99.90;;;;;;5053128;28;20286;-44
2022/05/26 02:06:17;;;;;;;7.00;4.57;;;14.00;99.90;;;;;;5052655;28;20217;-44
2022/05/26 02:08:49;;;;;;;6.33;4.30;;;14.00;99.90;;;;;;5042042;28;20711;-46
2022/05/26 02:11:18;;;;;;;5.43;4.60;;;14.00;99.90;;;;;;5049016;28;20222;-45
2022/05/26 02:13:50;;;;;;;7.73;5.40;;;14.00;99.90;;;;;;5043142;28;20200;-46
2022/05/26 02:16:20;;;;;;;5.33;4.80;;;14.00;99.90;;;;;;5045494;28;20263;-45
2022/05/26 02:18:54;;;;;;;5.67;4.53;;;14.00;99.90;;;;;;5044845;28;20238;-49
2022/05/26 02:21:27;;;;;;;5.80;5.23;;;14.00;99.90;;;;;;5044217;28;20207;-44
2022/05/26 02:24:01;;;;;;;6.33;4.93;;;14.00;99.90;;;;;;5043588;28;20542;-43
2022/05/26 02:26:31;;;;;;;7.27;5.13;;;14.00;99.90;;;;;;5040996;28;20198;-45
2022/05/26 02:31:44;;;;;;;6.10;5.60;;;14.00;99.90;;;;;;5047120;28;20965;-43
2022/05/26 02:34:14;;;;;;;8.37;5.53;;;14.00;99.90;;;;;;5049754;28;20551;-46
2022/05/26 02:36:43;;;;;;;8.17;5.27;;;14.00;99.90;;;;;;5047305;28;20218;-45
2022/05/26 02:39:10;;;;;;;6.37;4.80;;;14.00;99.90;;;;;;5041700;28;20898;-49
2022/05/26 02:41:39;;;;;;;6.00;5.17;;;14.00;99.90;;;;;;5048337;28;20208;-44
2022/05/26 02:44:07;;;;;;;10.87;5.03;;;14.00;99.90;;;;;;5048875;28;20730;-44
2022/05/26 02:46:47;;;;;;;7.53;4.70;;;14.00;99.90;;;;;;5044760;28;20209;-43
2022/05/26 02:49:31;;;;;;;6.50;5.33;;;14.00;99.90;;;;;;5042136;28;20234;-46
2022/05/26 02:52:05;;;;;;;5.93;5.30;;;14.00;99.90;;;;;;5044982;28;20605;-44
2022/05/26 02:54:44;;;;;;;6.93;5.37;;;14.00;99.90;;;;;;5043795;28;20329;-46
2022/05/26 02:57:18;;;;;;;9.13;4.93;;;14.00;99.90;;;;;;5044715;28;20242;-47
2022/05/26 02:59:53;;;;;;;5.83;5.10;;;14.10;99.90;;;;;;5049188;28;20201;-45
2022/05/26 03:02:24;;;;;;;10.23;5.33;;;14.00;99.90;;;;;;5058634;28;20202;-47
2022/05/26 03:05:00;;;;;;;9.17;6.10;;;14.00;99.90;;;;;;5045198;28;20203;-45
2022/05/26 03:07:30;;;;;;;6.40;5.10;;;14.00;99.90;;;;;;5042303;28;20222;-42
2022/05/26 03:09:57;;;;;;;9.50;6.10;;;14.10;99.90;;;;;;5041493;28;20213;-45
2022/05/26 03:12:27;;;;;;;7.40;5.40;;;14.00;99.90;;;;;;5044566;28;20250;-45
2022/05/26 03:14:54;;;;;;;7.33;5.60;;;14.00;99.90;;;;;;5054802;28;20198;-45
2022/05/26 03:17:21;;;;;;;9.73;5.73;;;14.00;99.90;;;;;;5046147;28;20264;-46
2022/05/26 03:19:48;;;;;;;7.07;5.53;;;14.10;99.90;;;;;;5055201;28;20194;-44
2022/05/26 03:22:17;;;;;;;8.57;5.40;;;14.10;99.90;;;;;;5056867;28;20667;-44
2022/05/26 03:24:44;;;;;;;6.80;5.03;;;14.00;99.90;;;;;;5046994;28;20221;-44
2022/05/26 03:27:11;;;;;;;8.13;5.90;;;14.10;99.90;;;;;;5057890;28;20226;-47
2022/05/26 03:29:38;;;;;;;8.23;5.60;;;14.10;99.90;;;;;;5054681;28;20194;-41
2022/05/26 03:32:07;;;;;;;8.67;5.40;;;14.10;99.90;;;;;;5060007;28;20699;-41
2022/05/26 03:42:51;;;;;;;7.63;5.50;;;14.00;99.90;;;;;;5066481;28;20186;-42
2022/05/26 03:45:22;;;;;;;7.67;5.87;;;14.00;99.90;;;;;;5062898;28;20240;-41
2022/05/26 03:47:49;;;;;;;5.53;5.03;;;14.00;99.90;;;;;;5056310;28;20653;-43
2022/05/26 03:50:17;;;;;;;6.80;5.30;;;14.00;99.90;;;;;;5058048;28;20214;-41
2022/05/26 03:52:45;;;;;;;7.63;5.73;;;13.90;99.90;;;;;;5064016;28;20226;-40
2022/05/26 03:55:12;;;;;;;10.67;6.07;;;13.90;99.90;;;;;;5061006;28;20191;-40
2022/05/26 03:57:39;;;;;;;11.23;5.67;;;13.90;99.90;;;;;;5074197;28;20213;-41
2022/05/26 04:00:07;;;;;;;8.07;5.27;;;13.90;99.90;;;;;;5076725;28;20209;-41
2022/05/26 04:02:38;;;;;;;6.67;5.97;;;13.90;99.90;;;;;;5060884;28;20198;-41
2022/05/26 04:05:07;;;;;;;6.50;5.60;;;13.90;99.90;;;;;;5059632;28;20199;-43
2022/05/26 04:07:34;;;;;;;10.70;6.13;;;14.00;99.90;;;;;;5059097;28;20226;-39
2022/05/26 04:10:03;;;;;;;7.27;6.07;;;14.00;99.90;;;;;;5068075;28;20552;-44
2022/05/26 04:12:30;;;;;;;10.77;5.97;;;14.00;99.90;;;;;;5058675;28;20301;-41
2022/05/26 04:14:57;;;;;;;7.23;6.10;;;14.00;99.90;;;;;;5063631;28;20568;-41
2022/05/26 04:17:24;;;;;;;7.40;5.40;;;14.00;99.90;;;;;;5048926;28;20231;-41
2022/05/26 04:19:50;;;;;;;6.77;5.67;;;14.10;99.90;;;;;;5062476;28;20668;-42
2022/05/26 04:22:18;;;;;;;10.90;6.60;;;14.10;99.90;;;;;;5051571;28;20199;-41
2022/05/26 04:24:47;;;;;;;10.10;6.43;;;14.10;99.90;;;;;;5056994;28;20209;-40
2022/05/26 04:27:16;;;;;;;9.03;6.10;;;14.10;99.90;;;;;;5063488;28;20230;-40
2022/05/26 04:29:44;;;;;;;6.13;5.07;;;14.20;99.90;;;;;;5061411;28;20210;-43
2022/05/26 04:32:12;;;;;;;7.13;5.90;;;14.20;99.90;;;;;;5048501;28;20218;-39
2022/05/26 04:34:39;;;;;;;10.00;5.43;;;14.20;99.90;;;;;;5058198;28;20195;-39
2022/05/26 04:37:07;;;;;;;7.53;5.53;;;14.20;99.90;;;;;;5057366;28;20237;-40
2022/05/26 04:39:34;;;;;;;7.07;5.83;;;14.20;99.90;;;;;;5059545;28;20264;-40
2022/05/26 04:42:03;;;;;;;9.75;6.40;;;14.20;99.90;;;;;;5058889;28;20426;-40
2022/05/26 04:44:32;;;;;;;7.97;5.50;;;14.30;99.90;;;;;;5063440;28;20186;-41
2022/05/26 04:47:00;;;;;;;7.13;5.43;;;14.30;99.90;;;;;;5062726;28;20274;-42
2022/05/26 04:49:27;;;;;;;8.30;5.23;;;14.30;99.90;;;;;;5049803;28;20199;-39
2022/05/26 04:51:55;;;;;;;11.73;5.60;;;14.30;99.90;;;;;;5050248;28;20215;-40
2022/05/26 04:54:22;;;;;;;9.60;5.80;;;14.30;99.90;;;;;;5056158;28;20207;-40
2022/05/26 04:56:49;;;;;;;11.23;6.40;;;14.30;99.90;;;;;;5049317;28;20925;-41
2022/05/26 04:59:16;;;;;;;11.07;5.60;;;14.40;99.90;;;;;;5055866;28;20797;-42
2022/05/26 05:01:44;;;;;;;9.90;6.00;;;14.40;99.90;;;;;;5056115;28;20442;-40
2022/05/26 05:04:11;;;;;;;9.50;5.27;;;14.60;99.90;;;;;;5059071;28;20195;-41
2022/05/26 05:06:37;;;;;;;14.98;6.30;;;14.50;99.90;;;;;;5053887;28;20436;-40
2022/05/26 05:09:04;;;;;;;9.52;5.38;;;14.60;99.90;;;;;;5069945;28;20436;-42
2022/05/26 05:11:31;;;;;;;6.73;4.77;;;14.80;99.90;;;;;;5050379;28;20857;-40
2022/05/26 05:14:02;;;;;;;8.67;5.13;;;14.70;99.90;;;;;;5057095;28;20276;-40
2022/05/26 05:16:31;;;;;;;11.43;5.00;;;14.60;99.90;;;;;;5051158;28;20210;-42
2022/05/26 05:18:59;;;;;;;11.05;5.30;;;14.60;99.90;;;;;;5051109;28;20997;-43
2022/05/26 05:21:31;;;;;;;9.63;4.93;;;14.80;99.90;;;;;;5057278;28;20186;-40
2022/05/26 05:24:02;;;;;;;9.27;4.20;;;14.70;99.90;;;;;;5048854;28;20205;-42
2022/05/26 05:26:31;;;;;;;6.83;4.13;;;14.60;99.90;;;;;;5050777;28;20199;-40
2022/05/26 05:29:05;;;;;;;7.73;4.13;;;14.60;99.90;;;;;;5048501;28;20621;-40
2022/05/26 05:31:36;;;;;;;8.10;4.00;;;14.60;99.90;;;;;;5054325;28;20326;-39
2022/05/26 05:34:11;;;;;;;10.23;4.50;;;14.50;99.90;;;;;;5053623;28;20589;-40
2022/05/26 05:36:40;;;;;;;7.20;3.80;;;14.60;99.90;;;;;;5053040;28;20206;-40
2022/05/26 05:39:06;;;;;;;10.43;4.47;;;14.60;99.90;;;;;;5043571;28;20234;-40
2022/05/26 05:41:35;;;;;;;7.37;3.83;;;14.60;99.90;;;;;;5054634;28;20202;-40
2022/05/26 05:44:03;;;;;;;6.73;3.10;;;14.70;99.90;;;;;;5051317;28;20199;-41
2022/05/26 05:46:34;;;;;;;13.33;3.77;;;14.70;99.90;;;;;;5047637;28;20966;-43
2022/05/26 05:49:02;;;;;;;7.73;4.03;;;14.70;99.90;;;;;;5054043;28;20234;-40
2022/05/26 05:51:32;;;;;;;8.97;3.47;;;14.70;99.90;;;;;;5046456;28;20194;-42
2022/05/26 05:53:59;;;;;;;7.57;4.03;;;14.70;99.90;;;;;;5042012;28;20242;-41
2022/05/26 05:56:26;;;;;;;6.40;3.47;;;14.80;99.90;;;;;;5044730;28;20205;-40
2022/05/26 05:58:55;;;;;;;16.03;4.43;;;14.80;99.90;;;;;;5051862;28;20226;-42
2022/05/26 06:01:22;;;;;;;10.75;4.35;;;14.80;99.90;;;;;;5046901;28;20434;-40
2022/05/26 06:03:49;;;;;;;8.93;3.80;;;14.90;99.90;;;;;;5056238;28;20261;-40
2022/05/26 06:06:16;;;;;;;6.65;3.60;;;14.90;99.90;;;;;;5047980;28;20455;-40
2022/05/26 06:08:44;;;;;;;9.33;4.23;;;14.90;99.90;;;;;;5057943;28;20432;-42
2022/05/26 06:11:10;;;;;;;8.83;4.03;;;15.10;99.90;;;;;;5044675;28;20593;-42
2022/05/26 06:13:37;;;;;;;5.80;3.07;;;15.00;99.90;;;;;;5049317;28;20226;-42
2022/05/26 06:16:05;;;;;;;6.90;3.27;;;15.10;99.90;;;;;;5046279;28;20343;-40
2022/05/26 06:18:32;;;;;;;7.53;3.03;;;15.20;99.90;;;;;;5055270;28;20218;-41
2022/05/26 06:21:03;;;;;;;11.60;3.83;;;15.20;99.90;;;;;;5048871;28;20279;-42
2022/05/26 06:23:30;;;;;;;7.50;2.70;;;15.20;99.90;;;;;;5055461;28;20598;-40
2022/05/26 06:25:59;;;;;;;4.40;2.30;;;15.20;99.90;;;;;;5045068;28;20210;-41
2022/05/26 06:31:12;;;;;;;6.38;2.80;;;15.40;99.90;;;;;;5056195;28;20519;-42
2022/05/26 06:39:23;;;;;;;8.20;2.70;;;15.70;99.90;;;;;;5033863;28;20521;-40
2022/05/26 06:42:07;;;;;;;8.07;2.78;;;15.60;99.90;;;;;;5016601;28;20445;-44
2022/05/26 06:44:37;;;;;;;8.93;3.03;;;15.70;99.90;;;;;;5029661;28;20439;-40
2022/05/26 06:47:06;;;;;;;7.50;2.97;;;15.70;99.90;;;;;;5044710;28;20198;-41
2022/05/26 06:49:33;;;;;;;6.80;2.67;;;15.50;99.90;;;;;;5054992;28;20464;-41
2022/05/26 06:52:02;;;;;;;6.05;2.65;;;15.70;99.90;;;;;;5050563;28;20959;-40
2022/05/26 06:54:31;;;;;;;7.05;2.80;;;15.90;99.90;;;;;;5040846;28;20789;-40
2022/05/26 06:56:59;;;;;;;7.25;2.40;;;16.00;99.90;;;;;;5058133;28;20440;-41
2022/05/26 06:59:26;;;;;;;9.15;2.78;;;15.90;99.90;;;;;;5055554;28;20422;-40
2022/05/26 07:01:53;;;;;;;6.68;2.28;;;15.90;99.90;;;;;;5049517;28;20443;-41
2022/05/26 07:04:21;;;;;;;6.13;2.00;;;16.00;99.90;;;;;;5044470;28;20434;-40
2022/05/26 07:06:50;;;;;;;6.65;2.42;;;16.20;99.90;;;;;;5054688;28;20444;-41
2022/05/26 07:09:17;;;;;;;5.57;1.80;;;16.10;99.90;;;;;;5049396;28;20246;-42
2022/05/26 07:11:44;;;;;;;8.35;1.63;;;16.00;99.90;;;;;;5051704;28;20437;-40
2022/05/26 07:14:12;;;;;;;5.35;1.70;;;16.10;99.90;;;;;;5043746;28;20483;-41
2022/05/26 07:16:40;;;;;;;6.05;2.03;;;16.20;99.90;;;;;;5054106;28;20438;-40
2022/05/26 07:19:07;;;;;;;6.63;1.50;;;16.30;99.90;;;;;;5042482;28;20218;-40
2022/05/26 07:21:34;;;;;;;5.53;1.70;;;16.10;99.90;;;;;;5056807;28;20442;-41
2022/05/26 07:24:00;;;;;;;5.87;1.40;;;16.20;99.90;;;;;;5056103;28;20445;-41
2022/05/26 07:26:28;;;;;;;5.10;1.30;;;16.00;99.90;;;;;;5050661;28;20187;-45
2022/05/26 07:28:55;;;;;;;5.03;1.53;;;15.90;99.90;;;;;;5050540;28;20230;-41
2022/05/26 07:31:23;;;;;;;5.60;1.65;;;15.80;99.90;;;;;;5043216;28;20435;-42
2022/05/26 07:33:50;;;;;;;5.50;1.50;;;16.00;99.90;;;;;;5042244;28;20227;-40
2022/05/26 07:41:50;;;;;;;3.55;1.58;;;16.10;99.90;;;;;;5054236;28;20453;-40
2022/05/26 07:44:17;;;;;;;5.20;1.07;;;16.30;99.90;;;;;;5041208;28;20290;-40
2022/05/26 07:46:46;;;;;;;5.17;1.17;;;16.30;99.90;;;;;;5045687;28;20842;-42
2022/05/26 07:49:13;;;;;;;3.20;1.17;;;16.30;99.90;;;;;;5045596;28;21028;-41
2022/05/26 07:51:40;;;;;;;2.20;0.67;;;16.10;99.90;;;;;;5054453;28;20206;-40
2022/05/26 07:54:06;;;;;;;2.77;1.00;;;16.00;99.90;;;;;;5050746;28;20230;-40
2022/05/26 07:56:37;;;;;;;3.37;0.97;;;16.00;99.90;;;;;;5050377;28;20586;-41
2022/05/26 07:59:05;;;;;;;3.83;0.60;;;16.00;99.90;;;;;;5042840;28;20218;-41
2022/05/26 08:01:32;;;;;;;6.87;0.80;;;15.90;99.90;;;;;;5055841;28;20207;-40
2022/05/26 08:04:01;;;;;;;4.17;1.07;;;16.00;99.90;;;;;;5054553;28;20199;-40
2022/05/26 08:06:28;;;;;;;1.73;0.63;;;16.00;99.90;;;;;;5052705;28;21515;-43
2022/05/26 08:08:55;;;;;;;5.13;1.13;;;15.90;99.90;;;;;;5054021;28;20222;-40
2022/05/26 08:11:21;;;;;;;3.50;0.80;;;16.00;99.90;;;;;;5051852;28;20264;-40
2022/05/26 08:13:48;;;;;;;3.80;0.83;;;16.00;99.90;;;;;;5060516;28;20217;-41
2022/05/26 08:16:15;;;;;;;3.27;0.60;;;16.10;99.90;;;;;;5048601;28;20203;-41
2022/05/26 08:18:42;;;;;;;2.20;0.60;;;16.10;99.70;;;;;;5059471;28;20219;-40
2022/05/26 08:21:12;;;;;;;1.47;0.40;;;16.20;99.10;;;;;;5051697;28;20191;-41
2022/05/26 08:23:40;;;;;;;1.20;0.83;;;16.20;98.80;;;;;;5053038;28;20195;-43
2022/05/26 08:26:07;;;;;;;3.60;1.00;;;16.30;99.20;;;;;;5041358;28;20632;-40
2022/05/26 08:28:35;;;;;;;5.53;0.80;;;16.20;98.40;;;;;;5064625;28;20219;-40
2022/05/26 08:31:03;;;;;;;3.97;0.70;;;16.20;98.50;;;;;;5050118;28;20194;-40
2022/05/26 08:33:29;;;;;;;1.10;0.57;;;16.30;98.20;;;;;;5056406;28;20219;-41
2022/05/26 08:36:01;;;;;;;1.97;0.60;;;16.40;98.40;;;;;;5051646;28;20207;-40
2022/05/26 08:38:29;;;;;;;3.33;0.80;;;16.60;97.90;;;;;;5047879;28;20216;-41
2022/05/26 08:40:56;;;;;;;4.70;1.13;;;16.70;97.90;;;;;;5055097;28;20601;-40
2022/05/26 08:43:27;;;;;;;5.97;0.87;;;16.80;97.20;;;;;;5049720;28;20192;-40
2022/05/26 08:45:55;;;;;;;2.87;0.73;;;16.80;96.10;;;;;;5048378;28;20586;-42
2022/05/26 08:48:40;;;;;;;1.97;0.53;;;16.60;95.70;;;;;;5049100;28;20226;-41
2022/05/26 08:51:13;;;;;;;4.40;0.70;;;16.50;93.60;;;;;;5051425;28;20207;-43
2022/05/26 08:53:42;;;;;;;2.93;0.90;;;16.30;95.10;;;;;;5043909;28;20741;-40
2022/05/26 08:56:12;;;;;;;2.43;0.87;;;16.20;94.80;;;;;;5056848;28;20191;-40
2022/05/26 08:58:46;;;;;;;4.10;1.03;;;16.10;95.60;;;;;;5055690;28;20222;-42
2022/05/26 09:01:16;;;;;;;3.03;0.77;;;16.10;95.90;;;;;;5053613;28;20298;-39
2022/05/26 09:03:45;;;;;;;3.37;1.00;;;16.10;96.50;;;;;;5054357;28;20275;-42
2022/05/26 09:06:14;;;;;;;1.97;0.90;;;16.00;97.10;;;;;;5047751;28;20217;-41
2022/05/26 09:14:23;;;;;;;4.23;0.67;;;16.30;97.70;;;;;;5050835;28;20257;-40
2022/05/26 09:16:50;;;;;;;2.70;0.70;;;16.40;98.10;;;;;;5049692;28;20214;-40
2022/05/26 09:19:19;;;;;;;3.13;0.87;;;16.60;97.70;;;;;;5047760;28;20219;-39
2022/05/26 09:21:48;;;;;;;5.03;0.73;;;16.70;97.70;;;;;;5059279;28;20203;-41
2022/05/26 09:24:24;;;;;;;4.20;0.90;;;16.80;96.70;;;;;;5040712;28;20210;-40
2022/05/26 09:26:56;;;;;;;2.57;0.60;;;16.60;96.50;;;;;;5054865;28;20206;-42
2022/05/26 09:29:26;;;;;;;5.23;0.70;;;16.50;96.10;;;;;;5042829;28;20903;-41
2022/05/26 09:31:56;;;;;;;3.73;0.60;;;16.50;96.40;;;;;;5053099;28;20286;-40
2022/05/26 09:34:25;;;;;;;3.63;0.70;;;16.50;95.80;;;;;;5041674;28;20217;-40
2022/05/26 09:36:55;;;;;;;2.80;0.60;;;16.60;95.20;;;;;;5053725;28;20213;-41
2022/05/26 09:39:25;;;;;;;0.97;0.30;;;16.70;95.50;;;;;;5054803;28;20203;-40
2022/05/26 09:41:54;;;;;;;1.00;0.50;;;17.00;94.50;;;;;;5042585;28;20203;-43
2022/05/26 09:44:36;;;;;;;3.07;0.50;;;17.10;94.90;;;;;;5051158;28;20209;-40
2022/05/26 09:47:08;;;;;;;2.27;0.57;;;17.20;93.60;;;;;;5049567;28;20214;-41
2022/05/26 09:49:41;;;;;;;1.60;0.63;;;17.30;94.60;;;;;;5052720;28;20363;-40
2022/05/26 09:52:14;;;;;;;1.27;0.50;;;17.20;93.70;;;;;;5046362;28;20210;-41
2022/05/26 09:54:42;;;;;;;2.37;0.73;;;17.10;92.50;;;;;;5060676;28;20226;-40
2022/05/26 09:57:16;;;;;;;3.57;0.33;;;17.00;92.30;;;;;;5038040;28;20203;-42
2022/05/26 09:59:44;;;;;;;2.03;0.70;;;17.10;92.00;;;;;;5060478;28;20222;-43
2022/05/26 10:02:16;;;;;;;5.13;0.70;;;16.90;92.60;;;;;;5050607;28;20226;-40
2022/05/26 10:04:54;;;;;;;3.70;0.67;;;16.80;92.70;;;;;;5063455;28;20194;-42
2022/05/26 10:07:29;;;;;;;4.00;0.60;;;16.90;93.60;;;;;;5047413;28;20218;-41
2022/05/26 10:10:05;;;;;;;3.80;0.60;;;17.00;93.70;;;;;;5059763;28;20186;-43
2022/05/26 10:12:41;;;;;;;3.73;0.50;;;17.10;93.50;;;;;;5043991;28;20198;-42
2022/05/26 10:15:17;;;;;;;1.97;0.67;;;17.20;93.70;;;;;;5051461;28;20578;-40
2022/05/26 10:17:59;;;;;;;2.73;0.83;;;17.30;93.70;;;;;;5044980;28;20317;-40
2022/05/26 10:20:37;;;;;;;2.10;0.80;;;17.30;93.80;;;;;;5053991;28;20339;-40
2022/05/26 10:23:17;;;;;;;2.33;0.70;;;17.50;94.30;;;;;;5052729;28;20682;-40
2022/05/26 10:25:58;;;;;;;4.10;1.00;;;17.70;94.60;;;;;;5056999;28;20312;-39
2022/05/26 10:28:41;;;;;;;5.13;0.67;;;18.00;94.40;;;;;;5041308;28;20214;-40
2022/05/26 10:31:20;;;;;;;2.73;0.70;;;17.90;93.60;;;;;;5057434;28;20582;-41
2022/05/26 10:34:02;;;;;;;2.40;0.73;;;17.70;94.20;;;;;;5057107;28;20244;-41
2022/05/26 10:36:41;;;;;;;2.03;0.63;;;17.40;94.50;;;;;;5051173;28;20217;-40
2022/05/26 10:39:15;;;;;;;3.67;0.60;;;17.10;94.60;;;;;;5054143;28;20222;-39
2022/05/26 10:41:49;;;;;;;4.00;0.70;;;16.90;95.50;;;;;;5053320;28;20293;-40
2022/05/26 10:44:22;;;;;;;2.93;0.73;;;17.00;96.00;;;;;;5045362;28;20667;-39
2022/05/26 10:46:57;;;;;;;2.57;0.60;;;16.90;96.00;;;;;;5054509;28;20199;-42
2022/05/26 10:49:31;;;;;;;3.43;1.13;;;17.00;96.30;;;;;;5046979;28;20199;-41
2022/05/26 10:52:02;;;;;;;3.70;0.60;;;17.10;95.70;;;;;;5051203;28;20224;-44
2022/05/26 10:54:37;;;;;;;3.13;0.60;;;17.30;96.30;;;;;;5047607;28;20226;-41
2022/05/26 10:57:10;;;;;;;3.33;0.67;;;17.50;96.80;;;;;;5051214;28;20202;-40
2022/05/26 10:59:42;;;;;;;5.90;0.60;;;17.80;95.90;;;;;;5041711;28;20287;-40
2022/05/26 11:02:16;;;;;;;3.23;0.80;;;18.00;95.60;;;;;;5056719;28;20590;-40
2022/05/26 11:04:48;;;;;;;2.33;0.63;;;18.10;95.90;;;;;;5061424;28;20225;-42
2022/05/26 11:07:21;;;;;;;0.70;0.57;;;18.30;95.10;;;;;;5037112;28;20253;-41
2022/05/26 11:09:52;;;;;;;1.40;0.40;;;18.50;91.50;;;;;;5060741;28;20650;-43
2022/05/26 11:12:30;;;;;;;1.50;0.43;;;18.30;91.30;;;;;;5061147;28;20266;-40
2022/05/26 11:17:53;;;;;;;0.90;0.40;;;17.90;90.30;;;;;;5057526;28;20352;-46
2022/05/26 11:20:23;;;;;;;2.73;0.70;;;17.70;90.10;;;;;;5048418;28;20206;-40
2022/05/26 11:22:51;;;;;;;3.60;1.00;;;17.60;90.40;;;;;;5047259;28;20211;-41
2022/05/26 11:25:25;;;;;;;0.97;0.77;;;17.70;90.50;;;;;;5048165;28;20202;-43
2022/05/26 11:27:57;;;;;;;4.83;0.70;;;17.70;90.00;;;;;;5055435;28;20229;-40
2022/05/26 11:36:08;;;;;;;2.87;0.50;;;17.80;89.40;;;;;;5038144;28;20326;-39
2022/05/26 11:38:41;;;;;;;3.27;0.50;;;17.90;87.20;;;;;;5049234;28;20229;-42
2022/05/26 11:41:12;;;;;;;3.27;0.83;;;17.90;87.90;;;;;;5048715;28;20202;-40
2022/05/26 11:43:45;;;;;;;2.53;0.57;;;17.90;86.80;;;;;;5053343;28;20207;-39
2022/05/26 11:46:33;;;;;;;4.03;0.60;;;17.90;88.00;;;;;;5045189;28;20218;-40
2022/05/26 11:49:00;;;;;;;2.00;0.70;;;17.90;89.30;;;;;;5066649;28;20209;-40
2022/05/26 11:51:30;;;;;;;4.27;0.60;;;17.80;89.20;;;;;;5055638;28;20199;-42
2022/05/26 11:53:59;;;;;;;4.87;0.90;;;17.80;90.20;;;;;;5048320;28;20267;-40
2022/05/26 11:56:48;;;;;;;1.97;0.63;;;17.80;90.30;;;;;;5046541;28;20283;-40
2022/05/26 11:59:48;;;;;;;2.37;0.63;;;17.90;90.70;;;;;;5048040;28;20227;-43
2022/05/26 12:02:32;;;;;;;5.67;0.90;;;17.80;89.50;;;;;;5051994;28;20206;-40
2022/05/26 12:05:32;;;;;;;2.50;0.87;;;17.80;90.10;;;;;;5069095;28;20538;-42
2022/05/26 12:08:01;;;;;;;4.20;0.40;;;17.70;90.60;;;;;;5052154;28;20219;-40
2022/05/26 12:10:29;;;;;;;4.53;0.80;;;17.70;90.50;;;;;;5051802;28;20597;-41
2022/05/26 12:13:21;;;;;;;2.53;1.43;;;17.70;90.40;;;;;;5050095;28;20203;-40
2022/05/26 12:16:20;;;;;;;4.67;1.00;;;17.90;90.20;;;;;;5049516;28;20215;-39
2022/05/26 12:18:49;;;;;;;2.87;0.50;;;18.20;90.40;;;;;;5042791;28;20230;-41
2022/05/26 12:21:34;;;;;;;2.70;0.53;;;18.20;89.40;;;;;;5077378;28;20202;-40
2022/05/26 12:24:35;;;;;;;4.03;0.70;;;18.10;90.00;;;;;;5042911;28;20210;-40
2022/05/26 12:27:04;;;;;;;4.33;0.60;;;18.00;89.10;;;;;;5056575;28;20442;-43
2022/05/26 12:30:01;;;;;;;7.13;0.60;;;17.90;90.00;;;;;;5059088;28;20256;-40
2022/05/26 12:32:32;;;;;;;1.10;0.60;;;17.60;90.20;;;;;;5060100;28;20224;-42
2022/05/26 12:35:09;;;;;;;3.73;0.53;;;17.50;91.10;;;;;;5054929;28;20468;-43
2022/05/26 12:37:48;;;;;;;2.07;0.63;;;17.40;91.70;;;;;;5046649;28;20632;-41
2022/05/26 12:40:37;;;;;;;2.77;1.07;;;17.30;92.80;;;;;;5053741;28;20205;-42
2022/05/26 12:43:33;;;;;;;2.17;0.67;;;17.30;93.30;;;;;;5056173;28;20198;-40
2022/05/26 12:46:11;;;;;;;2.90;0.67;;;17.30;94.10;;;;;;5046703;28;20191;-43
2022/05/26 12:48:56;;;;;;;5.43;1.17;;;17.30;94.10;;;;;;5047432;28;20260;-40
2022/05/26 12:51:24;;;;;;;3.50;0.77;;;17.30;94.60;;;;;;5071137;28;20642;-40
2022/05/26 12:53:55;;;;;;;2.00;0.70;;;17.20;94.80;;;;;;5053297;28;20698;-41
2022/05/26 12:56:27;;;;;;;5.00;1.03;;;17.10;95.40;;;;;;5058682;28;20220;-44
2022/05/26 12:58:57;;;;;;;1.00;0.50;;;17.10;95.70;;;;;;5054756;28;20215;-41
2022/05/26 13:01:26;;;;;;;2.63;0.87;;;17.20;95.40;;;;;;5056110;28;20233;-40
2022/05/26 13:04:03;;;;;;;3.37;0.60;;;17.30;95.40;;;;;;5051659;28;20903;-41
2022/05/26 13:06:33;;;;;;;4.27;1.00;;;17.50;95.20;;;;;;5064949;28;20297;-40
2022/05/26 13:09:06;;;;;;;3.43;1.20;;;17.50;94.90;;;;;;5040331;28;20211;-43
2022/05/26 13:11:36;;;;;;;3.17;0.87;;;17.40;94.90;;;;;;5055677;28;20207;-40
2022/05/26 13:14:09;;;;;;;2.07;0.70;;;17.30;95.40;;;;;;5045338;28;20201;-44
2022/05/26 13:16:38;;;;;;;2.80;1.00;;;17.20;95.60;;;;;;5060030;28;20245;-44
2022/05/26 13:19:16;;;;;;;3.40;0.70;;;17.10;95.50;;;;;;5064397;28;20221;-40
2022/05/26 13:21:45;;;;;;;4.47;1.10;;;17.00;95.70;;;;;;5056304;28;20205;-42
2022/05/26 13:24:17;;;;;;;5.67;0.90;;;16.90;96.00;;;;;;5051197;28;20982;-40
2022/05/26 13:26:45;;;;;;;2.13;0.60;;;16.90;95.80;;;;;;5047871;28;20237;-40
2022/05/26 13:29:15;;;;;;;2.10;0.90;;;17.10;96.00;;;;;;5051182;28;20220;-42
2022/05/26 13:34:32;;;;;;;3.03;0.87;;;18.00;94.20;;;;;;5060024;28;20218;-40
2022/05/26 13:37:14;;;;;;;3.37;0.90;;;18.20;94.10;;;;;;5056919;28;20592;-39
2022/05/26 13:39:42;;;;;;;3.03;0.87;;;18.10;94.30;;;;;;5043299;28;20203;-42
2022/05/26 13:42:10;;;;;;;4.07;0.60;;;17.90;94.30;;;;;;5054188;28;20202;-45
2022/05/26 13:44:41;;;;;;;3.30;0.70;;;17.70;94.80;;;;;;5050404;28;20195;-40
2022/05/26 13:47:12;;;;;;;3.90;1.00;;;17.50;95.30;;;;;;5048518;28;20194;-40
2022/05/26 13:49:43;;;;;;;4.53;0.70;;;17.30;95.40;;;;;;5062519;28;20206;-45